Terminal Aerodrome Forecast
Issued by NWS Charleston, WV

Current Version | Previous Version | Graphics & Text | Print | Product List | Glossary On
Versions: 1 2 3 4 5 6 7 8 9 10 11 12 13 14 15 16 17 18 19 20 21 22 23 24 25 26 27 28 29 30 31
930
FTUS41 KRLX 211748
TAFBKW
TAF
KBKW 211748Z 2118/2218 26006KT P6SM SCT015 OVC035
      TEMPO 2119/2123 2SM SHRA BR BKN008 OVC015
     FM212300 28007KT P6SM OVC025
     FM220400 32005KT 2SM BR OVC001
     FM220600 33006KT 3/4SM BR OVC001
     FM221300 32008KT P6SM BKN008
     FM221600 33011G19KT P6SM BKN015
     FM221700 33011G20KT P6SM BKN060=

USA.gov is the U.S. government's official web portal to all federal, state and local government web resources and services.